sensor_id;sensor_type;location;lat;lon;timestamp;P1;durP1;ratioP1;P2;durP2;ratioP2
20861;SDS011;10591;52.532;13.348;2023-08-31T00:01:39;12.03;;;6.17;;
20861;SDS011;10591;52.532;13.348;2023-08-31T00:04:10;12.25;;;6.50;;
20861;SDS011;10591;52.532;13.348;2023-08-31T00:06:42;14.63;;;7.40;;
20861;SDS011;10591;52.532;13.348;2023-08-31T00:09:15;9.95;;;5.95;;
20861;SDS011;10591;52.532;13.348;2023-08-31T00:11:46;12.15;;;6.75;;
20861;SDS011;10591;52.532;13.348;2023-08-31T00:14:17;11.93;;;6.65;;
20861;SDS011;10591;52.532;13.348;2023-08-31T00:16:48;13.55;;;7.33;;
20861;SDS011;10591;52.532;13.348;2023-08-31T00:19:21;11.12;;;6.20;;
20861;SDS011;10591;52.532;13.348;2023-08-31T00:21:52;13.48;;;6.12;;
20861;SDS011;10591;52.532;13.348;2023-08-31T00:24:22;10.48;;;5.62;;
20861;SDS011;10591;52.532;13.348;2023-08-31T00:26:55;8.13;;;5.70;;
20861;SDS011;10591;52.532;13.348;2023-08-31T00:29:27;10.10;;;5.53;;
20861;SDS011;10591;52.532;13.348;2023-08-31T00:32:01;9.93;;;5.92;;
20861;SDS011;10591;52.532;13.348;2023-08-31T00:34:32;11.18;;;6.08;;
20861;SDS011;10591;52.532;13.348;2023-08-31T00:37:06;10.43;;;5.70;;
20861;SDS011;10591;52.532;13.348;2023-08-31T00:39:39;8.38;;;5.22;;
20861;SDS011;10591;52.532;13.348;2023-08-31T00:42:10;11.43;;;5.78;;
20861;SDS011;10591;52.532;13.348;2023-08-31T00:44:43;13.32;;;6.58;;
20861;SDS011;10591;52.532;13.348;2023-08-31T00:47:16;10.63;;;5.70;;
20861;SDS011;10591;52.532;13.348;2023-08-31T00:49:51;9.93;;;5.92;;
20861;SDS011;10591;52.532;13.348;2023-08-31T00:52:22;10.93;;;6.20;;
20861;SDS011;10591;52.532;13.348;2023-08-31T00:54:53;9.18;;;5.80;;
20861;SDS011;10591;52.532;13.348;2023-08-31T00:57:26;8.63;;;5.95;;
20861;SDS011;10591;52.532;13.348;2023-08-31T00:59:57;11.18;;;6.53;;
20861;SDS011;10591;52.532;13.348;2023-08-31T01:02:30;11.38;;;6.42;;
20861;SDS011;10591;52.532;13.348;2023-08-31T01:05:25;10.48;;;6.53;;
20861;SDS011;10591;52.532;13.348;2023-08-31T01:11:02;15.72;;;7.72;;
20861;SDS011;10591;52.532;13.348;2023-08-31T01:13:41;10.03;;;6.55;;
20861;SDS011;10591;52.532;13.348;2023-08-31T01:16:14;17.00;;;8.90;;
20861;SDS011;10591;52.532;13.348;2023-08-31T01:18:46;12.82;;;7.17;;
20861;SDS011;10591;52.532;13.348;2023-08-31T01:23:57;13.30;;;8.30;;
20861;SDS011;10591;52.532;13.348;2023-08-31T01:26:27;12.40;;;8.00;;
20861;SDS011;10591;52.532;13.348;2023-08-31T01:28:59;14.45;;;7.90;;
20861;SDS011;10591;52.532;13.348;2023-08-31T01:31:29;10.78;;;7.12;;
20861;SDS011;10591;52.532;13.348;2023-08-31T01:34:00;13.22;;;7.67;;
20861;SDS011;10591;52.532;13.348;2023-08-31T01:36:31;10.13;;;6.50;;
20861;SDS011;10591;52.532;13.348;2023-08-31T01:39:12;11.35;;;6.65;;
20861;SDS011;10591;52.532;13.348;2023-08-31T01:41:48;17.20;;;7.22;;
20861;SDS011;10591;52.532;13.348;2023-08-31T01:44:23;10.20;;;5.80;;
20861;SDS011;10591;52.532;13.348;2023-08-31T01:46:53;11.90;;;6.50;;
20861;SDS011;10591;52.532;13.348;2023-08-31T01:49:26;11.15;;;6.05;;
20861;SDS011;10591;52.532;13.348;2023-08-31T01:51:56;12.58;;;6.10;;
20861;SDS011;10591;52.532;13.348;2023-08-31T01:54:27;14.33;;;6.45;;
20861;SDS011;10591;52.532;13.348;2023-08-31T01:56:57;11.08;;;6.03;;
20861;SDS011;10591;52.532;13.348;2023-08-31T01:59:31;7.83;;;5.15;;
20861;SDS011;10591;52.532;13.348;2023-08-31T02:02:03;10.78;;;5.75;;
20861;SDS011;10591;52.532;13.348;2023-08-31T02:04:34;15.25;;;6.58;;
20861;SDS011;10591;52.532;13.348;2023-08-31T02:07:05;7.97;;;4.78;;
20861;SDS011;10591;52.532;13.348;2023-08-31T02:09:35;10.20;;;5.92;;
20861;SDS011;10591;52.532;13.348;2023-08-31T02:12:08;9.73;;;5.20;;
20861;SDS011;10591;52.532;13.348;2023-08-31T02:14:41;12.30;;;5.47;;
20861;SDS011;10591;52.532;13.348;2023-08-31T02:17:12;10.98;;;5.05;;
20861;SDS011;10591;52.532;13.348;2023-08-31T02:19:42;10.40;;;4.92;;
20861;SDS011;10591;52.532;13.348;2023-08-31T02:22:13;9.60;;;4.65;;
20861;SDS011;10591;52.532;13.348;2023-08-31T02:24:44;13.32;;;6.03;;
20861;SDS011;10591;52.532;13.348;2023-08-31T02:27:15;12.90;;;5.78;;
20861;SDS011;10591;52.532;13.348;2023-08-31T02:29:45;14.43;;;5.85;;
20861;SDS011;10591;52.532;13.348;2023-08-31T02:32:16;15.98;;;6.03;;
20861;SDS011;10591;52.532;13.348;2023-08-31T02:34:47;13.38;;;5.95;;
20861;SDS011;10591;52.532;13.348;2023-08-31T02:37:17;11.88;;;5.35;;
20861;SDS011;10591;52.532;13.348;2023-08-31T02:39:48;12.60;;;5.47;;
20861;SDS011;10591;52.532;13.348;2023-08-31T02:42:19;12.18;;;5.08;;
20861;SDS011;10591;52.532;13.348;2023-08-31T02:44:51;11.53;;;5.53;;
20861;SDS011;10591;52.532;13.348;2023-08-31T02:47:22;11.43;;;5.70;;
20861;SDS011;10591;52.532;13.348;2023-08-31T02:49:53;11.35;;;5.62;;
20861;SDS011;10591;52.532;13.348;2023-08-31T02:52:25;9.68;;;5.10;;
20861;SDS011;10591;52.532;13.348;2023-08-31T02:54:56;11.20;;;5.62;;
20861;SDS011;10591;52.532;13.348;2023-08-31T02:57:26;8.38;;;4.80;;
20861;SDS011;10591;52.532;13.348;2023-08-31T02:59:57;10.88;;;5.47;;
20861;SDS011;10591;52.532;13.348;2023-08-31T03:02:28;9.13;;;4.55;;
20861;SDS011;10591;52.532;13.348;2023-08-31T03:04:59;17.57;;;6.12;;
20861;SDS011;10591;52.532;13.348;2023-08-31T03:07:30;11.55;;;5.20;;
20861;SDS011;10591;52.532;13.348;2023-08-31T03:10:01;9.78;;;4.72;;
20861;SDS011;10591;52.532;13.348;2023-08-31T03:12:34;14.85;;;5.53;;
20861;SDS011;10591;52.532;13.348;2023-08-31T03:15:08;15.38;;;5.95;;
20861;SDS011;10591;52.532;13.348;2023-08-31T03:17:39;12.15;;;5.28;;
20861;SDS011;10591;52.532;13.348;2023-08-31T03:20:09;12.20;;;5.30;;
20861;SDS011;10591;52.532;13.348;2023-08-31T03:22:40;11.33;;;5.08;;
20861;SDS011;10591;52.532;13.348;2023-08-31T03:25:11;14.60;;;5.25;;
20861;SDS011;10591;52.532;13.348;2023-08-31T03:27:42;13.93;;;5.40;;
20861;SDS011;10591;52.532;13.348;2023-08-31T03:30:13;14.65;;;5.85;;
20861;SDS011;10591;52.532;13.348;2023-08-31T03:32:43;13.95;;;5.20;;
20861;SDS011;10591;52.532;13.348;2023-08-31T03:35:14;13.25;;;5.35;;
20861;SDS011;10591;52.532;13.348;2023-08-31T03:37:48;12.88;;;4.97;;
20861;SDS011;10591;52.532;13.348;2023-08-31T03:40:18;18.30;;;6.20;;
20861;SDS011;10591;52.532;13.348;2023-08-31T03:42:49;12.90;;;5.55;;
20861;SDS011;10591;52.532;13.348;2023-08-31T03:45:21;15.43;;;5.67;;
20861;SDS011;10591;52.532;13.348;2023-08-31T03:47:52;11.68;;;5.50;;
20861;SDS011;10591;52.532;13.348;2023-08-31T03:50:22;12.37;;;5.22;;
20861;SDS011;10591;52.532;13.348;2023-08-31T03:52:54;11.85;;;5.40;;
20861;SDS011;10591;52.532;13.348;2023-08-31T03:55:25;12.70;;;5.65;;
20861;SDS011;10591;52.532;13.348;2023-08-31T03:57:55;12.80;;;6.13;;
20861;SDS011;10591;52.532;13.348;2023-08-31T04:00:27;11.75;;;5.95;;
20861;SDS011;10591;52.532;13.348;2023-08-31T04:02:58;13.75;;;6.92;;
20861;SDS011;10591;52.532;13.348;2023-08-31T04:05:33;14.30;;;6.47;;
20861;SDS011;10591;52.532;13.348;2023-08-31T04:08:04;12.73;;;6.78;;
20861;SDS011;10591;52.532;13.348;2023-08-31T04:10:35;17.12;;;7.78;;
20861;SDS011;10591;52.532;13.348;2023-08-31T04:13:06;12.25;;;6.70;;
20861;SDS011;10591;52.532;13.348;2023-08-31T04:15:37;13.93;;;6.92;;
20861;SDS011;10591;52.532;13.348;2023-08-31T04:18:07;13.55;;;7.10;;
20861;SDS011;10591;52.532;13.348;2023-08-31T04:20:38;14.63;;;7.28;;
20861;SDS011;10591;52.532;13.348;2023-08-31T04:23:10;13.25;;;7.58;;
20861;SDS011;10591;52.532;13.348;2023-08-31T04:25:41;12.15;;;7.10;;
20861;SDS011;10591;52.532;13.348;2023-08-31T04:28:12;15.53;;;7.67;;
20861;SDS011;10591;52.532;13.348;2023-08-31T04:30:43;13.78;;;7.58;;
20861;SDS011;10591;52.532;13.348;2023-08-31T04:33:14;14.83;;;7.72;;
20861;SDS011;10591;52.532;13.348;2023-08-31T04:35:45;14.87;;;7.92;;
20861;SDS011;10591;52.532;13.348;2023-08-31T04:38:16;22.45;;;10.05;;
20861;SDS011;10591;52.532;13.348;2023-08-31T04:40:46;18.55;;;9.28;;
20861;SDS011;10591;52.532;13.348;2023-08-31T04:43:17;18.42;;;8.75;;
20861;SDS011;10591;52.532;13.348;2023-08-31T04:45:47;19.98;;;9.60;;
20861;SDS011;10591;52.532;13.348;2023-08-31T04:48:18;23.02;;;10.15;;
20861;SDS011;10591;52.532;13.348;2023-08-31T04:50:49;16.27;;;9.25;;
20861;SDS011;10591;52.532;13.348;2023-08-31T04:53:19;18.00;;;9.95;;
20861;SDS011;10591;52.532;13.348;2023-08-31T04:55:50;17.17;;;9.53;;
20861;SDS011;10591;52.532;13.348;2023-08-31T04:58:21;20.25;;;9.88;;
20861;SDS011;10591;52.532;13.348;2023-08-31T05:00:51;17.37;;;9.45;;
20861;SDS011;10591;52.532;13.348;2023-08-31T05:03:22;17.23;;;9.33;;
20861;SDS011;10591;52.532;13.348;2023-08-31T05:05:54;16.82;;;9.63;;
20861;SDS011;10591;52.532;13.348;2023-08-31T05:08:24;17.42;;;9.33;;
20861;SDS011;10591;52.532;13.348;2023-08-31T05:10:55;15.38;;;9.45;;
20861;SDS011;10591;52.532;13.348;2023-08-31T05:13:25;15.13;;;9.18;;
20861;SDS011;10591;52.532;13.348;2023-08-31T05:15:56;16.00;;;9.88;;
20861;SDS011;10591;52.532;13.348;2023-08-31T05:18:27;17.77;;;10.35;;
20861;SDS011;10591;52.532;13.348;2023-08-31T05:20:58;19.52;;;10.20;;
20861;SDS011;10591;52.532;13.348;2023-08-31T05:23:28;20.52;;;10.08;;
20861;SDS011;10591;52.532;13.348;2023-08-31T05:25:59;19.12;;;9.68;;
20861;SDS011;10591;52.532;13.348;2023-08-31T05:28:30;14.20;;;9.00;;
20861;SDS011;10591;52.532;13.348;2023-08-31T05:31:04;16.67;;;9.58;;
20861;SDS011;10591;52.532;13.348;2023-08-31T05:33:35;17.90;;;9.60;;
20861;SDS011;10591;52.532;13.348;2023-08-31T05:36:08;16.55;;;9.68;;
20861;SDS011;10591;52.532;13.348;2023-08-31T05:38:39;16.77;;;10.13;;
20861;SDS011;10591;52.532;13.348;2023-08-31T05:41:12;14.85;;;9.48;;
20861;SDS011;10591;52.532;13.348;2023-08-31T05:43:43;19.37;;;10.30;;
20861;SDS011;10591;52.532;13.348;2023-08-31T05:46:14;18.30;;;10.68;;
20861;SDS011;10591;52.532;13.348;2023-08-31T05:48:45;16.75;;;10.58;;
20861;SDS011;10591;52.532;13.348;2023-08-31T05:51:16;20.48;;;10.30;;
20861;SDS011;10591;52.532;13.348;2023-08-31T05:53:47;18.57;;;9.93;;
20861;SDS011;10591;52.532;13.348;2023-08-31T05:56:18;18.77;;;10.43;;
20861;SDS011;10591;52.532;13.348;2023-08-31T05:58:49;16.12;;;9.80;;
20861;SDS011;10591;52.532;13.348;2023-08-31T06:01:21;18.60;;;10.40;;
20861;SDS011;10591;52.532;13.348;2023-08-31T06:03:52;21.65;;;10.13;;
20861;SDS011;10591;52.532;13.348;2023-08-31T06:06:23;15.03;;;9.33;;
20861;SDS011;10591;52.532;13.348;2023-08-31T06:08:54;22.80;;;10.93;;
20861;SDS011;10591;52.532;13.348;2023-08-31T06:11:26;17.32;;;9.53;;
20861;SDS011;10591;52.532;13.348;2023-08-31T06:13:57;16.60;;;9.60;;
20861;SDS011;10591;52.532;13.348;2023-08-31T06:16:28;16.73;;;9.78;;
20861;SDS011;10591;52.532;13.348;2023-08-31T06:18:58;15.63;;;9.70;;
20861;SDS011;10591;52.532;13.348;2023-08-31T06:21:29;18.77;;;10.45;;
20861;SDS011;10591;52.532;13.348;2023-08-31T06:24:00;17.82;;;9.73;;
20861;SDS011;10591;52.532;13.348;2023-08-31T06:26:31;17.05;;;9.75;;
20861;SDS011;10591;52.532;13.348;2023-08-31T06:29:02;20.90;;;10.40;;
20861;SDS011;10591;52.532;13.348;2023-08-31T06:31:34;13.85;;;9.08;;
20861;SDS011;10591;52.532;13.348;2023-08-31T06:34:05;17.52;;;9.93;;
20861;SDS011;10591;52.532;13.348;2023-08-31T06:36:36;13.78;;;9.23;;
20861;SDS011;10591;52.532;13.348;2023-08-31T06:39:10;17.10;;;10.23;;
20861;SDS011;10591;52.532;13.348;2023-08-31T06:41:41;15.00;;;9.40;;
20861;SDS011;10591;52.532;13.348;2023-08-31T06:44:13;16.40;;;8.98;;
20861;SDS011;10591;52.532;13.348;2023-08-31T06:46:43;16.48;;;9.40;;
20861;SDS011;10591;52.532;13.348;2023-08-31T06:49:14;14.95;;;9.83;;
20861;SDS011;10591;52.532;13.348;2023-08-31T06:51:45;16.15;;;9.80;;
20861;SDS011;10591;52.532;13.348;2023-08-31T06:54:16;15.83;;;9.58;;
20861;SDS011;10591;52.532;13.348;2023-08-31T06:56:48;16.48;;;9.60;;
20861;SDS011;10591;52.532;13.348;2023-08-31T06:59:20;20.15;;;10.32;;
20861;SDS011;10591;52.532;13.348;2023-08-31T07:01:51;21.05;;;10.30;;
20861;SDS011;10591;52.532;13.348;2023-08-31T07:04:28;14.60;;;9.10;;
20861;SDS011;10591;52.532;13.348;2023-08-31T07:06:59;19.65;;;10.15;;
20861;SDS011;10591;52.532;13.348;2023-08-31T07:09:32;16.02;;;9.38;;
20861;SDS011;10591;52.532;13.348;2023-08-31T07:12:04;18.57;;;9.80;;
20861;SDS011;10591;52.532;13.348;2023-08-31T07:14:35;17.52;;;9.60;;
20861;SDS011;10591;52.532;13.348;2023-08-31T07:17:07;17.00;;;9.25;;
20861;SDS011;10591;52.532;13.348;2023-08-31T07:19:38;13.80;;;8.28;;
20861;SDS011;10591;52.532;13.348;2023-08-31T07:22:09;17.30;;;8.45;;
20861;SDS011;10591;52.532;13.348;2023-08-31T07:24:41;20.05;;;9.30;;
20861;SDS011;10591;52.532;13.348;2023-08-31T07:27:14;14.50;;;7.95;;
20861;SDS011;10591;52.532;13.348;2023-08-31T07:29:45;13.13;;;7.55;;
20861;SDS011;10591;52.532;13.348;2023-08-31T07:32:17;16.20;;;8.18;;
20861;SDS011;10591;52.532;13.348;2023-08-31T07:34:49;13.28;;;7.47;;
20861;SDS011;10591;52.532;13.348;2023-08-31T07:37:19;15.40;;;7.92;;
20861;SDS011;10591;52.532;13.348;2023-08-31T07:39:50;15.35;;;7.40;;
20861;SDS011;10591;52.532;13.348;2023-08-31T07:42:20;13.90;;;7.42;;
20861;SDS011;10591;52.532;13.348;2023-08-31T07:44:53;15.23;;;7.42;;
20861;SDS011;10591;52.532;13.348;2023-08-31T07:47:23;15.20;;;6.65;;
20861;SDS011;10591;52.532;13.348;2023-08-31T07:49:56;14.40;;;7.35;;
20861;SDS011;10591;52.532;13.348;2023-08-31T07:52:26;15.98;;;8.13;;
20861;SDS011;10591;52.532;13.348;2023-08-31T07:54:57;16.75;;;7.53;;
20861;SDS011;10591;52.532;13.348;2023-08-31T07:57:28;19.05;;;8.20;;
20861;SDS011;10591;52.532;13.348;2023-08-31T07:59:58;17.73;;;6.95;;
20861;SDS011;10591;52.532;13.348;2023-08-31T08:02:32;12.05;;;6.62;;
20861;SDS011;10591;52.532;13.348;2023-08-31T08:05:03;13.75;;;6.92;;
20861;SDS011;10591;52.532;13.348;2023-08-31T08:07:36;11.65;;;5.90;;
20861;SDS011;10591;52.532;13.348;2023-08-31T08:10:09;13.15;;;6.05;;
20861;SDS011;10591;52.532;13.348;2023-08-31T08:12:43;12.88;;;6.12;;
20861;SDS011;10591;52.532;13.348;2023-08-31T08:15:16;11.25;;;5.80;;
20861;SDS011;10591;52.532;13.348;2023-08-31T08:17:47;18.77;;;7.45;;
20861;SDS011;10591;52.532;13.348;2023-08-31T08:20:19;11.95;;;5.37;;
20861;SDS011;10591;52.532;13.348;2023-08-31T08:22:50;9.83;;;4.95;;
20861;SDS011;10591;52.532;13.348;2023-08-31T08:25:21;12.13;;;6.03;;
20861;SDS011;10591;52.532;13.348;2023-08-31T08:27:52;10.58;;;5.22;;
20861;SDS011;10591;52.532;13.348;2023-08-31T08:30:22;12.47;;;5.45;;
20861;SDS011;10591;52.532;13.348;2023-08-31T08:32:53;11.55;;;5.20;;
20861;SDS011;10591;52.532;13.348;2023-08-31T08:35:24;12.33;;;5.62;;
20861;SDS011;10591;52.532;13.348;2023-08-31T08:37:55;8.83;;;4.47;;
20861;SDS011;10591;52.532;13.348;2023-08-31T08:40:25;9.38;;;4.83;;
20861;SDS011;10591;52.532;13.348;2023-08-31T08:42:56;11.08;;;4.45;;
20861;SDS011;10591;52.532;13.348;2023-08-31T08:45:31;15.60;;;5.50;;
20861;SDS011;10591;52.532;13.348;2023-08-31T08:48:05;8.80;;;4.17;;
20861;SDS011;10591;52.532;13.348;2023-08-31T08:50:37;11.63;;;4.53;;
20861;SDS011;10591;52.532;13.348;2023-08-31T08:53:07;11.40;;;4.72;;
20861;SDS011;10591;52.532;13.348;2023-08-31T08:55:40;7.87;;;3.70;;
20861;SDS011;10591;52.532;13.348;2023-08-31T08:58:11;10.55;;;4.00;;
20861;SDS011;10591;52.532;13.348;2023-08-31T09:00:41;10.85;;;4.42;;
20861;SDS011;10591;52.532;13.348;2023-08-31T09:03:13;8.85;;;4.12;;
20861;SDS011;10591;52.532;13.348;2023-08-31T09:05:44;13.50;;;4.75;;
20861;SDS011;10591;52.532;13.348;2023-08-31T09:08:14;9.13;;;4.10;;
20861;SDS011;10591;52.532;13.348;2023-08-31T09:10:45;11.43;;;4.65;;
20861;SDS011;10591;52.532;13.348;2023-08-31T09:13:16;11.63;;;4.65;;
20861;SDS011;10591;52.532;13.348;2023-08-31T09:15:48;8.33;;;3.58;;
20861;SDS011;10591;52.532;13.348;2023-08-31T09:18:23;12.35;;;4.35;;
20861;SDS011;10591;52.532;13.348;2023-08-31T09:20:57;13.65;;;5.17;;
20861;SDS011;10591;52.532;13.348;2023-08-31T09:23:27;12.10;;;4.58;;
20861;SDS011;10591;52.532;13.348;2023-08-31T09:25:58;12.78;;;4.78;;
20861;SDS011;10591;52.532;13.348;2023-08-31T09:28:29;10.25;;;4.37;;
20861;SDS011;10591;52.532;13.348;2023-08-31T09:31:07;11.50;;;4.60;;
20861;SDS011;10591;52.532;13.348;2023-08-31T09:33:37;10.55;;;3.90;;
20861;SDS011;10591;52.532;13.348;2023-08-31T09:36:09;7.25;;;3.47;;
20861;SDS011;10591;52.532;13.348;2023-08-31T09:38:44;11.45;;;4.35;;
20861;SDS011;10591;52.532;13.348;2023-08-31T09:41:15;8.13;;;4.08;;
20861;SDS011;10591;52.532;13.348;2023-08-31T09:43:47;10.18;;;4.15;;
20861;SDS011;10591;52.532;13.348;2023-08-31T09:46:18;10.95;;;4.20;;
20861;SDS011;10591;52.532;13.348;2023-08-31T09:48:50;12.60;;;4.50;;
20861;SDS011;10591;52.532;13.348;2023-08-31T09:51:26;8.63;;;3.75;;
20861;SDS011;10591;52.532;13.348;2023-08-31T09:53:58;12.70;;;4.33;;
20861;SDS011;10591;52.532;13.348;2023-08-31T09:56:32;10.32;;;4.20;;
20861;SDS011;10591;52.532;13.348;2023-08-31T09:59:04;7.97;;;3.60;;
20861;SDS011;10591;52.532;13.348;2023-08-31T10:01:35;10.48;;;4.30;;
20861;SDS011;10591;52.532;13.348;2023-08-31T10:04:06;9.43;;;4.35;;
20861;SDS011;10591;52.532;13.348;2023-08-31T10:06:41;7.60;;;3.62;;
20861;SDS011;10591;52.532;13.348;2023-08-31T10:09:13;9.23;;;3.83;;
20861;SDS011;10591;52.532;13.348;2023-08-31T10:11:44;8.73;;;3.87;;
20861;SDS011;10591;52.532;13.348;2023-08-31T10:14:16;9.65;;;4.05;;
20861;SDS011;10591;52.532;13.348;2023-08-31T10:16:50;9.43;;;3.85;;
20861;SDS011;10591;52.532;13.348;2023-08-31T10:19:21;9.38;;;3.80;;
20861;SDS011;10591;52.532;13.348;2023-08-31T10:21:52;9.68;;;3.92;;
20861;SDS011;10591;52.532;13.348;2023-08-31T10:27:28;7.95;;;3.30;;
20861;SDS011;10591;52.532;13.348;2023-08-31T10:30:12;8.85;;;3.58;;
20861;SDS011;10591;52.532;13.348;2023-08-31T10:32:47;11.93;;;3.92;;
20861;SDS011;10591;52.532;13.348;2023-08-31T10:38:15;10.95;;;4.10;;
20861;SDS011;10591;52.532;13.348;2023-08-31T10:41:02;9.43;;;3.67;;
20861;SDS011;10591;52.532;13.348;2023-08-31T10:46:33;7.10;;;3.70;;
20861;SDS011;10591;52.532;13.348;2023-08-31T10:51:54;8.28;;;3.77;;
20861;SDS011;10591;52.532;13.348;2023-08-31T10:54:26;11.88;;;5.65;;
20861;SDS011;10591;52.532;13.348;2023-08-31T10:57:05;9.45;;;4.53;;
20861;SDS011;10591;52.532;13.348;2023-08-31T10:59:41;9.00;;;4.15;;
20861;SDS011;10591;52.532;13.348;2023-08-31T11:05:04;9.48;;;4.12;;
20861;SDS011;10591;52.532;13.348;2023-08-31T11:07:38;8.08;;;3.98;;
20861;SDS011;10591;52.532;13.348;2023-08-31T11:10:14;8.58;;;4.20;;
20861;SDS011;10591;52.532;13.348;2023-08-31T11:12:54;7.75;;;4.33;;
20861;SDS011;10591;52.532;13.348;2023-08-31T11:15:29;7.05;;;3.70;;
20861;SDS011;10591;52.532;13.348;2023-08-31T11:18:01;7.22;;;3.70;;
20861;SDS011;10591;52.532;13.348;2023-08-31T11:20:33;10.72;;;5.00;;
20861;SDS011;10591;52.532;13.348;2023-08-31T11:23:03;10.38;;;4.37;;
20861;SDS011;10591;52.532;13.348;2023-08-31T11:25:34;9.68;;;5.42;;
20861;SDS011;10591;52.532;13.348;2023-08-31T11:28:07;8.88;;;4.10;;
20861;SDS011;10591;52.532;13.348;2023-08-31T11:30:38;8.35;;;3.75;;
20861;SDS011;10591;52.532;13.348;2023-08-31T11:33:12;9.95;;;4.40;;
20861;SDS011;10591;52.532;13.348;2023-08-31T11:35:46;10.95;;;4.45;;
20861;SDS011;10591;52.532;13.348;2023-08-31T11:38:19;10.95;;;5.62;;
20861;SDS011;10591;52.532;13.348;2023-08-31T11:40:49;10.15;;;6.08;;
20861;SDS011;10591;52.532;13.348;2023-08-31T11:43:22;9.90;;;4.83;;
20861;SDS011;10591;52.532;13.348;2023-08-31T11:45:53;10.78;;;5.95;;
20861;SDS011;10591;52.532;13.348;2023-08-31T11:48:29;8.85;;;5.25;;
20861;SDS011;10591;52.532;13.348;2023-08-31T11:51:00;9.65;;;5.28;;
20861;SDS011;10591;52.532;13.348;2023-08-31T11:53:31;10.28;;;5.42;;
20861;SDS011;10591;52.532;13.348;2023-08-31T11:56:02;9.68;;;5.72;;
20861;SDS011;10591;52.532;13.348;2023-08-31T11:58:40;10.55;;;5.12;;
20861;SDS011;10591;52.532;13.348;2023-08-31T12:01:21;8.75;;;5.35;;
20861;SDS011;10591;52.532;13.348;2023-08-31T12:03:54;11.78;;;7.50;;
20861;SDS011;10591;52.532;13.348;2023-08-31T12:06:24;11.80;;;6.85;;
20861;SDS011;10591;52.532;13.348;2023-08-31T12:08:55;10.85;;;6.03;;
20861;SDS011;10591;52.532;13.348;2023-08-31T12:11:25;10.03;;;4.83;;
20861;SDS011;10591;52.532;13.348;2023-08-31T12:13:59;13.00;;;6.12;;
20861;SDS011;10591;52.532;13.348;2023-08-31T12:16:34;12.68;;;5.90;;
20861;SDS011;10591;52.532;13.348;2023-08-31T12:19:05;8.23;;;4.60;;
20861;SDS011;10591;52.532;13.348;2023-08-31T12:21:36;7.90;;;4.45;;
20861;SDS011;10591;52.532;13.348;2023-08-31T12:24:06;9.60;;;5.17;;
20861;SDS011;10591;52.532;13.348;2023-08-31T12:26:40;7.78;;;4.92;;
20861;SDS011;10591;52.532;13.348;2023-08-31T12:29:10;7.33;;;4.50;;
20861;SDS011;10591;52.532;13.348;2023-08-31T12:31:41;9.55;;;4.85;;
20861;SDS011;10591;52.532;13.348;2023-08-31T12:34:13;10.58;;;5.22;;
20861;SDS011;10591;52.532;13.348;2023-08-31T12:36:45;8.60;;;5.00;;
20861;SDS011;10591;52.532;13.348;2023-08-31T12:39:15;9.88;;;5.22;;
20861;SDS011;10591;52.532;13.348;2023-08-31T12:41:46;9.10;;;5.53;;
20861;SDS011;10591;52.532;13.348;2023-08-31T12:44:18;9.13;;;5.05;;
20861;SDS011;10591;52.532;13.348;2023-08-31T12:46:48;5.90;;;4.40;;
20861;SDS011;10591;52.532;13.348;2023-08-31T12:49:19;8.35;;;4.97;;
20861;SDS011;10591;52.532;13.348;2023-08-31T12:51:51;8.00;;;4.40;;
20861;SDS011;10591;52.532;13.348;2023-08-31T12:54:25;9.40;;;4.67;;
20861;SDS011;10591;52.532;13.348;2023-08-31T12:56:55;7.40;;;4.47;;
20861;SDS011;10591;52.532;13.348;2023-08-31T12:59:28;6.25;;;4.28;;
20861;SDS011;10591;52.532;13.348;2023-08-31T13:01:59;7.42;;;4.17;;
20861;SDS011;10591;52.532;13.348;2023-08-31T13:04:32;9.73;;;4.97;;
20861;SDS011;10591;52.532;13.348;2023-08-31T13:07:05;7.45;;;4.58;;
20861;SDS011;10591;52.532;13.348;2023-08-31T13:09:36;8.25;;;4.28;;
20861;SDS011;10591;52.532;13.348;2023-08-31T13:12:09;6.53;;;3.65;;
20861;SDS011;10591;52.532;13.348;2023-08-31T13:14:40;7.75;;;4.35;;
20861;SDS011;10591;52.532;13.348;2023-08-31T13:17:12;5.20;;;3.20;;
20861;SDS011;10591;52.532;13.348;2023-08-31T13:19:43;5.78;;;3.25;;
20861;SDS011;10591;52.532;13.348;2023-08-31T13:22:13;10.20;;;4.42;;
20861;SDS011;10591;52.532;13.348;2023-08-31T13:24:45;12.55;;;5.10;;
20861;SDS011;10591;52.532;13.348;2023-08-31T13:27:17;6.28;;;3.67;;
20861;SDS011;10591;52.532;13.348;2023-08-31T13:29:50;7.20;;;4.05;;
20861;SDS011;10591;52.532;13.348;2023-08-31T13:32:21;5.90;;;3.35;;
20861;SDS011;10591;52.532;13.348;2023-08-31T13:34:52;6.35;;;3.75;;
20861;SDS011;10591;52.532;13.348;2023-08-31T13:37:22;8.18;;;3.80;;
20861;SDS011;10591;52.532;13.348;2023-08-31T13:39:53;8.88;;;4.22;;
20861;SDS011;10591;52.532;13.348;2023-08-31T13:42:25;7.42;;;3.85;;
20861;SDS011;10591;52.532;13.348;2023-08-31T13:44:58;9.53;;;4.65;;
20861;SDS011;10591;52.532;13.348;2023-08-31T13:47:28;9.13;;;4.25;;
20861;SDS011;10591;52.532;13.348;2023-08-31T13:49:59;7.05;;;3.77;;
20861;SDS011;10591;52.532;13.348;2023-08-31T13:52:29;9.30;;;4.45;;
20861;SDS011;10591;52.532;13.348;2023-08-31T13:55:00;7.00;;;3.65;;
20861;SDS011;10591;52.532;13.348;2023-08-31T13:57:31;8.43;;;4.37;;
20861;SDS011;10591;52.532;13.348;2023-08-31T14:00:02;8.00;;;4.35;;
20861;SDS011;10591;52.532;13.348;2023-08-31T14:02:36;11.93;;;4.62;;
20861;SDS011;10591;52.532;13.348;2023-08-31T14:05:07;7.85;;;3.33;;
20861;SDS011;10591;52.532;13.348;2023-08-31T14:07:39;6.33;;;3.45;;
20861;SDS011;10591;52.532;13.348;2023-08-31T14:10:09;5.67;;;3.20;;
20861;SDS011;10591;52.532;13.348;2023-08-31T14:12:40;5.80;;;3.45;;
20861;SDS011;10591;52.532;13.348;2023-08-31T14:15:11;6.97;;;3.60;;
20861;SDS011;10591;52.532;13.348;2023-08-31T14:17:42;6.35;;;3.70;;
20861;SDS011;10591;52.532;13.348;2023-08-31T14:20:13;6.60;;;3.50;;
20861;SDS011;10591;52.532;13.348;2023-08-31T14:22:44;6.80;;;3.52;;
20861;SDS011;10591;52.532;13.348;2023-08-31T14:25:14;8.58;;;3.85;;
20861;SDS011;10591;52.532;13.348;2023-08-31T14:27:46;7.42;;;3.55;;
20861;SDS011;10591;52.532;13.348;2023-08-31T14:30:17;8.33;;;4.00;;
20861;SDS011;10591;52.532;13.348;2023-08-31T14:32:47;6.87;;;3.65;;
20861;SDS011;10591;52.532;13.348;2023-08-31T14:35:18;7.80;;;3.58;;
20861;SDS011;10591;52.532;13.348;2023-08-31T14:37:51;8.78;;;3.75;;
20861;SDS011;10591;52.532;13.348;2023-08-31T14:40:24;9.13;;;3.85;;
20861;SDS011;10591;52.532;13.348;2023-08-31T14:42:54;8.73;;;3.67;;
20861;SDS011;10591;52.532;13.348;2023-08-31T14:45:26;6.55;;;3.17;;
20861;SDS011;10591;52.532;13.348;2023-08-31T14:47:58;7.10;;;3.22;;
20861;SDS011;10591;52.532;13.348;2023-08-31T14:50:29;4.53;;;2.30;;
20861;SDS011;10591;52.532;13.348;2023-08-31T14:53:01;6.90;;;3.45;;
20861;SDS011;10591;52.532;13.348;2023-08-31T14:55:32;5.75;;;2.83;;
20861;SDS011;10591;52.532;13.348;2023-08-31T14:58:04;7.58;;;3.70;;
20861;SDS011;10591;52.532;13.348;2023-08-31T15:00:35;6.42;;;3.55;;
20861;SDS011;10591;52.532;13.348;2023-08-31T15:03:07;8.75;;;4.20;;
20861;SDS011;10591;52.532;13.348;2023-08-31T15:05:38;6.33;;;3.52;;
20861;SDS011;10591;52.532;13.348;2023-08-31T15:08:12;6.58;;;3.45;;
20861;SDS011;10591;52.532;13.348;2023-08-31T15:10:43;8.13;;;4.10;;
20861;SDS011;10591;52.532;13.348;2023-08-31T15:13:14;9.45;;;4.97;;